sensor_id;sensor_type;location;lat;lon;timestamp;pressure;altitude;pressure_sealevel;temperature;humidity
42385;BME280;28042;43.986;22.860;2023-02-23T00:01:15;101143.63;;;6.61;91.74
42385;BME280;28042;43.986;22.860;2023-02-23T00:03:42;101148.31;;;6.59;92.46
42385;BME280;28042;43.986;22.860;2023-02-23T00:06:08;101148.03;;;6.62;92.25
42385;BME280;28042;43.986;22.860;2023-02-23T00:08:34;101150.75;;;6.62;91.88
42385;BME280;28042;43.986;22.860;2023-02-23T00:11:03;101153.13;;;6.65;91.42
42385;BME280;28042;43.986;22.860;2023-02-23T00:13:30;101162.59;;;6.61;91.12
42385;BME280;28042;43.986;22.860;2023-02-23T00:15:55;101160.72;;;6.61;92.03
42385;BME280;28042;43.986;22.860;2023-02-23T00:18:21;101153.63;;;6.68;91.79
42385;BME280;28042;43.986;22.860;2023-02-23T00:20:56;101155.16;;;6.63;91.34
42385;BME280;28042;43.986;22.860;2023-02-23T00:23:21;101161.59;;;6.62;91.39
42385;BME280;28042;43.986;22.860;2023-02-23T00:25:47;101159.16;;;6.59;91.92
42385;BME280;28042;43.986;22.860;2023-02-23T00:28:12;101170.72;;;6.61;92.29
42385;BME280;28042;43.986;22.860;2023-02-23T00:30:37;101167.69;;;6.64;92.15
42385;BME280;28042;43.986;22.860;2023-02-23T00:33:03;101170.06;;;6.67;91.76
42385;BME280;28042;43.986;22.860;2023-02-23T00:35:28;101172.88;;;6.57;92.24
42385;BME280;28042;43.986;22.860;2023-02-23T00:37:53;101174.69;;;6.48;92.82
42385;BME280;28042;43.986;22.860;2023-02-23T00:40:19;101190.00;;;6.32;93.73
42385;BME280;28042;43.986;22.860;2023-02-23T00:42:46;101186.88;;;6.01;94.86
42385;BME280;28042;43.986;22.860;2023-02-23T00:45:13;101194.13;;;5.82;96.31
42385;BME280;28042;43.986;22.860;2023-02-23T00:47:39;101199.59;;;5.73;97.52
42385;BME280;28042;43.986;22.860;2023-02-23T00:50:07;101190.53;;;5.64;98.30
42385;BME280;28042;43.986;22.860;2023-02-23T00:52:35;101187.22;;;5.52;99.71
42385;BME280;28042;43.986;22.860;2023-02-23T00:55:01;101193.41;;;5.45;100.00
42385;BME280;28042;43.986;22.860;2023-02-23T00:57:26;101188.38;;;5.32;100.00
42385;BME280;28042;43.986;22.860;2023-02-23T00:59:51;101186.78;;;5.29;100.00
42385;BME280;28042;43.986;22.860;2023-02-23T01:02:16;101195.44;;;5.15;100.00
42385;BME280;28042;43.986;22.860;2023-02-23T01:04:42;101200.75;;;5.07;100.00
42385;BME280;28042;43.986;22.860;2023-02-23T01:07:07;101196.94;;;5.00;100.00
42385;BME280;28042;43.986;22.860;2023-02-23T01:09:32;101196.94;;;5.00;100.00
42385;BME280;28042;43.986;22.860;2023-02-23T01:11:58;101200.94;;;4.96;100.00
42385;BME280;28042;43.986;22.860;2023-02-23T01:14:27;101203.13;;;4.82;100.00
42385;BME280;28042;43.986;22.860;2023-02-23T01:16:52;101207.88;;;4.71;100.00
42385;BME280;28042;43.986;22.860;2023-02-23T01:19:20;101198.06;;;4.60;100.00
42385;BME280;28042;43.986;22.860;2023-02-23T01:21:45;101211.91;;;4.47;100.00
42385;BME280;28042;43.986;22.860;2023-02-23T01:24:11;101219.34;;;4.36;100.00
42385;BME280;28042;43.986;22.860;2023-02-23T01:26:38;101218.78;;;4.22;100.00
42385;BME280;28042;43.986;22.860;2023-02-23T01:29:05;101215.09;;;4.14;100.00
42385;BME280;28042;43.986;22.860;2023-02-23T01:31:33;101214.78;;;4.07;100.00
42385;BME280;28042;43.986;22.860;2023-02-23T01:34:00;101217.09;;;4.02;100.00
42385;BME280;28042;43.986;22.860;2023-02-23T01:36:26;101223.06;;;3.96;100.00
42385;BME280;28042;43.986;22.860;2023-02-23T01:38:53;101228.75;;;3.93;100.00
42385;BME280;28042;43.986;22.860;2023-02-23T01:41:20;101228.16;;;3.89;100.00
42385;BME280;28042;43.986;22.860;2023-02-23T01:44:00;101232.13;;;3.76;100.00
42385;BME280;28042;43.986;22.860;2023-02-23T01:46:29;101225.44;;;3.70;100.00
42385;BME280;28042;43.986;22.860;2023-02-23T01:48:55;101231.44;;;3.74;100.00
42385;BME280;28042;43.986;22.860;2023-02-23T01:51:21;101230.16;;;3.78;100.00
42385;BME280;28042;43.986;22.860;2023-02-23T01:53:50;101235.00;;;3.84;100.00
42385;BME280;28042;43.986;22.860;2023-02-23T01:56:24;101240.09;;;3.87;100.00
42385;BME280;28042;43.986;22.860;2023-02-23T01:58:51;101250.34;;;3.93;100.00
42385;BME280;28042;43.986;22.860;2023-02-23T02:01:18;101251.03;;;3.95;100.00
42385;BME280;28042;43.986;22.860;2023-02-23T02:03:46;101248.91;;;3.98;100.00
42385;BME280;28042;43.986;22.860;2023-02-23T02:06:13;101252.75;;;3.96;100.00
42385;BME280;28042;43.986;22.860;2023-02-23T02:08:40;101259.69;;;3.98;100.00
42385;BME280;28042;43.986;22.860;2023-02-23T02:11:14;101246.34;;;3.97;100.00
42385;BME280;28042;43.986;22.860;2023-02-23T02:14:09;101248.78;;;4.00;100.00
42385;BME280;28042;43.986;22.860;2023-02-23T02:35:29;101257.44;;;4.13;100.00
42385;BME280;28042;43.986;22.860;2023-02-23T02:46:07;101268.66;;;4.18;100.00
42385;BME280;28042;43.986;22.860;2023-02-23T02:48:58;101279.31;;;4.20;100.00
42385;BME280;28042;43.986;22.860;2023-02-23T02:56:21;101291.53;;;4.14;100.00
42385;BME280;28042;43.986;22.860;2023-02-23T02:58:48;101297.94;;;4.13;100.00
42385;BME280;28042;43.986;22.860;2023-02-23T03:01:15;101289.53;;;4.07;100.00
42385;BME280;28042;43.986;22.860;2023-02-23T03:04:01;101294.06;;;4.06;100.00
42385;BME280;28042;43.986;22.860;2023-02-23T03:06:51;101298.91;;;4.03;100.00
42385;BME280;28042;43.986;22.860;2023-02-23T03:09:55;101294.53;;;4.02;100.00
42385;BME280;28042;43.986;22.860;2023-02-23T03:15:36;101292.94;;;3.99;100.00
42385;BME280;28042;43.986;22.860;2023-02-23T03:21:30;101303.31;;;3.94;100.00
42385;BME280;28042;43.986;22.860;2023-02-23T03:24:39;101302.59;;;3.92;100.00
42385;BME280;28042;43.986;22.860;2023-02-23T03:30:36;101308.69;;;3.84;100.00
42385;BME280;28042;43.986;22.860;2023-02-23T03:33:28;101303.88;;;3.88;100.00
42385;BME280;28042;43.986;22.860;2023-02-23T03:36:15;101303.16;;;3.86;100.00
42385;BME280;28042;43.986;22.860;2023-02-23T03:39:11;101308.56;;;3.86;100.00
42385;BME280;28042;43.986;22.860;2023-02-23T03:41:57;101319.63;;;3.83;100.00
42385;BME280;28042;43.986;22.860;2023-02-23T03:44:44;101323.88;;;3.76;100.00
42385;BME280;28042;43.986;22.860;2023-02-23T03:47:32;101329.97;;;3.68;100.00
42385;BME280;28042;43.986;22.860;2023-02-23T03:50:28;101334.34;;;3.69;100.00
42385;BME280;28042;43.986;22.860;2023-02-23T03:53:13;101334.22;;;3.71;100.00
42385;BME280;28042;43.986;22.860;2023-02-23T03:56:00;101332.81;;;3.66;100.00
42385;BME280;28042;43.986;22.860;2023-02-23T03:58:49;101345.13;;;3.59;100.00
42385;BME280;28042;43.986;22.860;2023-02-23T04:01:34;101339.72;;;3.59;100.00
42385;BME280;28042;43.986;22.860;2023-02-23T04:04:19;101339.72;;;3.59;100.00
42385;BME280;28042;43.986;22.860;2023-02-23T04:07:04;101344.69;;;3.64;100.00
42385;BME280;28042;43.986;22.860;2023-02-23T04:09:50;101335.75;;;3.63;100.00
42385;BME280;28042;43.986;22.860;2023-02-23T04:12:51;101341.25;;;3.52;100.00
42385;BME280;28042;43.986;22.860;2023-02-23T04:15:47;101348.09;;;3.56;100.00
42385;BME280;28042;43.986;22.860;2023-02-23T04:18:23;101340.97;;;3.55;100.00
42385;BME280;28042;43.986;22.860;2023-02-23T04:20:49;101348.91;;;3.47;100.00
42385;BME280;28042;43.986;22.860;2023-02-23T04:23:14;101348.78;;;3.49;100.00
42385;BME280;28042;43.986;22.860;2023-02-23T04:25:40;101346.19;;;3.47;100.00
42385;BME280;28042;43.986;22.860;2023-02-23T04:28:05;101339.38;;;3.43;100.00
42385;BME280;28042;43.986;22.860;2023-02-23T04:30:31;101357.50;;;3.31;100.00
42385;BME280;28042;43.986;22.860;2023-02-23T04:32:56;101356.66;;;3.31;100.00
42385;BME280;28042;43.986;22.860;2023-02-23T04:35:23;101348.09;;;3.26;100.00
42385;BME280;28042;43.986;22.860;2023-02-23T04:37:49;101353.78;;;3.23;100.00
42385;BME280;28042;43.986;22.860;2023-02-23T04:40:14;101358.69;;;3.18;100.00
42385;BME280;28042;43.986;22.860;2023-02-23T04:42:40;101366.59;;;3.09;100.00
42385;BME280;28042;43.986;22.860;2023-02-23T04:45:06;101352.50;;;2.96;100.00
42385;BME280;28042;43.986;22.860;2023-02-23T04:47:31;101359.19;;;3.02;100.00
42385;BME280;28042;43.986;22.860;2023-02-23T04:49:56;101360.78;;;3.04;100.00
42385;BME280;28042;43.986;22.860;2023-02-23T04:52:22;101356.75;;;2.99;100.00
42385;BME280;28042;43.986;22.860;2023-02-23T04:54:47;101352.22;;;2.99;100.00
42385;BME280;28042;43.986;22.860;2023-02-23T04:57:12;101355.75;;;3.00;100.00
42385;BME280;28042;43.986;22.860;2023-02-23T04:59:38;101355.91;;;2.98;100.00
42385;BME280;28042;43.986;22.860;2023-02-23T05:02:03;101364.97;;;2.97;100.00
42385;BME280;28042;43.986;22.860;2023-02-23T05:04:28;101367.47;;;2.89;100.00
42385;BME280;28042;43.986;22.860;2023-02-23T05:06:54;101369.13;;;2.80;100.00
42385;BME280;28042;43.986;22.860;2023-02-23T05:09:19;101361.41;;;2.76;100.00
42385;BME280;28042;43.986;22.860;2023-02-23T05:11:45;101374.16;;;2.74;100.00
42385;BME280;28042;43.986;22.860;2023-02-23T05:14:10;101365.09;;;2.75;100.00
42385;BME280;28042;43.986;22.860;2023-02-23T05:16:36;101371.13;;;2.67;100.00
42385;BME280;28042;43.986;22.860;2023-02-23T05:19:02;101381.06;;;2.67;100.00
42385;BME280;28042;43.986;22.860;2023-02-23T05:21:27;101377.16;;;2.60;100.00
42385;BME280;28042;43.986;22.860;2023-02-23T05:23:52;101378.81;;;2.51;100.00
42385;BME280;28042;43.986;22.860;2023-02-23T05:26:18;101381.63;;;2.49;100.00
42385;BME280;28042;43.986;22.860;2023-02-23T05:28:43;101389.06;;;2.57;100.00
42385;BME280;28042;43.986;22.860;2023-02-23T05:31:09;101384.53;;;2.58;100.00
42385;BME280;28042;43.986;22.860;2023-02-23T05:33:34;101393.09;;;2.63;100.00
42385;BME280;28042;43.986;22.860;2023-02-23T05:36:07;101401.03;;;2.64;100.00
42385;BME280;28042;43.986;22.860;2023-02-23T05:38:32;101399.06;;;2.66;100.00
42385;BME280;28042;43.986;22.860;2023-02-23T05:41:03;101404.28;;;2.79;100.00
42385;BME280;28042;43.986;22.860;2023-02-23T05:43:28;101401.50;;;2.90;100.00
42385;BME280;28042;43.986;22.860;2023-02-23T05:45:53;101407.81;;;3.00;100.00
42385;BME280;28042;43.986;22.860;2023-02-23T05:48:18;101413.75;;;3.15;100.00
42385;BME280;28042;43.986;22.860;2023-02-23T05:50:44;101418.41;;;3.34;100.00
42385;BME280;28042;43.986;22.860;2023-02-23T05:53:09;101419.75;;;3.49;100.00
42385;BME280;28042;43.986;22.860;2023-02-23T05:55:35;101422.59;;;3.48;100.00
42385;BME280;28042;43.986;22.860;2023-02-23T05:58:00;101427.56;;;3.52;100.00
42385;BME280;28042;43.986;22.860;2023-02-23T06:00:25;101429.69;;;3.49;100.00
42385;BME280;28042;43.986;22.860;2023-02-23T06:02:51;101433.09;;;3.51;100.00
42385;BME280;28042;43.986;22.860;2023-02-23T06:05:17;101437.50;;;3.52;100.00
42385;BME280;28042;43.986;22.860;2023-02-23T06:07:43;101440.78;;;3.55;100.00
42385;BME280;28042;43.986;22.860;2023-02-23T06:10:08;101441.38;;;3.59;100.00
42385;BME280;28042;43.986;22.860;2023-02-23T06:12:34;101439.72;;;3.67;100.00
42385;BME280;28042;43.986;22.860;2023-02-23T06:14:59;101445.66;;;3.61;100.00
42385;BME280;28042;43.986;22.860;2023-02-23T06:17:24;101453.31;;;3.56;100.00
42385;BME280;28042;43.986;22.860;2023-02-23T06:19:49;101458.94;;;3.53;100.00
42385;BME280;28042;43.986;22.860;2023-02-23T06:22:15;101457.34;;;3.72;100.00
42385;BME280;28042;43.986;22.860;2023-02-23T06:24:43;101457.66;;;3.78;100.00
42385;BME280;28042;43.986;22.860;2023-02-23T06:27:09;101462.75;;;3.81;100.00
42385;BME280;28042;43.986;22.860;2023-02-23T06:29:34;101467.34;;;3.90;100.00
42385;BME280;28042;43.986;22.860;2023-02-23T06:32:01;101460.28;;;3.99;100.00
42385;BME280;28042;43.986;22.860;2023-02-23T06:34:26;101465.47;;;4.21;100.00
42385;BME280;28042;43.986;22.860;2023-02-23T06:36:52;101465.50;;;4.31;100.00
42385;BME280;28042;43.986;22.860;2023-02-23T06:39:17;101468.06;;;4.33;100.00
42385;BME280;28042;43.986;22.860;2023-02-23T06:41:42;101466.38;;;4.51;100.00
42385;BME280;28042;43.986;22.860;2023-02-23T06:44:08;101462.16;;;4.68;100.00
42385;BME280;28042;43.986;22.860;2023-02-23T06:46:33;101455.63;;;4.90;100.00
42385;BME280;28042;43.986;22.860;2023-02-23T06:49:00;101465.59;;;4.99;100.00
42385;BME280;28042;43.986;22.860;2023-02-23T06:51:25;101457.91;;;5.14;100.00
42385;BME280;28042;43.986;22.860;2023-02-23T06:53:50;101468.28;;;5.18;99.94
42385;BME280;28042;43.986;22.860;2023-02-23T06:56:18;101475.09;;;5.32;99.75
42385;BME280;28042;43.986;22.860;2023-02-23T06:58:44;101470.06;;;5.47;99.46
42385;BME280;28042;43.986;22.860;2023-02-23T07:01:10;101476.19;;;5.58;98.07
42385;BME280;28042;43.986;22.860;2023-02-23T07:03:36;101481.38;;;5.79;96.65
42385;BME280;28042;43.986;22.860;2023-02-23T07:06:02;101477.41;;;5.83;95.36
42385;BME280;28042;43.986;22.860;2023-02-23T07:08:28;101479.47;;;5.99;93.88
42385;BME280;28042;43.986;22.860;2023-02-23T07:10:54;101479.84;;;6.14;92.57
42385;BME280;28042;43.986;22.860;2023-02-23T07:13:21;101475.94;;;6.26;90.95
42385;BME280;28042;43.986;22.860;2023-02-23T07:15:47;101472.63;;;6.32;89.65
42385;BME280;28042;43.986;22.860;2023-02-23T07:18:12;101468.63;;;6.36;89.38
42385;BME280;28042;43.986;22.860;2023-02-23T07:20:39;101476.94;;;6.53;88.80
42385;BME280;28042;43.986;22.860;2023-02-23T07:23:04;101469.59;;;6.63;87.72
42385;BME280;28042;43.986;22.860;2023-02-23T07:25:30;101470.81;;;6.68;86.96
42385;BME280;28042;43.986;22.860;2023-02-23T07:27:55;101475.56;;;6.84;85.43
42385;BME280;28042;43.986;22.860;2023-02-23T07:30:23;101470.44;;;6.81;84.70
42385;BME280;28042;43.986;22.860;2023-02-23T07:32:49;101475.63;;;6.57;85.15
42385;BME280;28042;43.986;22.860;2023-02-23T07:35:14;101470.91;;;6.76;84.73
42385;BME280;28042;43.986;22.860;2023-02-23T07:37:40;101477.75;;;6.80;83.69
42385;BME280;28042;43.986;22.860;2023-02-23T07:40:06;101474.53;;;6.85;84.29
42385;BME280;28042;43.986;22.860;2023-02-23T07:42:31;101477.56;;;7.00;83.84
42385;BME280;28042;43.986;22.860;2023-02-23T07:44:57;101480.78;;;6.95;82.76
42385;BME280;28042;43.986;22.860;2023-02-23T07:47:22;101481.44;;;7.15;82.33
42385;BME280;28042;43.986;22.860;2023-02-23T07:49:54;101482.16;;;6.99;81.79
42385;BME280;28042;43.986;22.860;2023-02-23T07:52:20;101481.44;;;7.33;81.94
42385;BME280;28042;43.986;22.860;2023-02-23T07:54:45;101484.38;;;7.65;79.93
42385;BME280;28042;43.986;22.860;2023-02-23T07:57:10;101493.63;;;7.55;78.63
42385;BME280;28042;43.986;22.860;2023-02-23T07:59:36;101495.53;;;7.62;78.80
42385;BME280;28042;43.986;22.860;2023-02-23T08:02:03;101484.78;;;7.79;78.11
42385;BME280;28042;43.986;22.860;2023-02-23T08:04:28;101492.88;;;7.97;77.45
42385;BME280;28042;43.986;22.860;2023-02-23T08:06:53;101484.56;;;7.72;76.59
42385;BME280;28042;43.986;22.860;2023-02-23T08:09:19;101487.69;;;7.77;77.23
42385;BME280;28042;43.986;22.860;2023-02-23T08:11:44;101489.25;;;7.88;76.82
42385;BME280;28042;43.986;22.860;2023-02-23T08:14:10;101494.41;;;7.91;76.81
42385;BME280;28042;43.986;22.860;2023-02-23T08:16:35;101489.53;;;7.77;77.37
42385;BME280;28042;43.986;22.860;2023-02-23T08:19:01;101502.16;;;7.60;77.22
42385;BME280;28042;43.986;22.860;2023-02-23T08:21:27;101495.88;;;7.59;78.39
42385;BME280;28042;43.986;22.860;2023-02-23T08:23:53;101489.88;;;7.74;78.23
42385;BME280;28042;43.986;22.860;2023-02-23T08:26:19;101493.31;;;7.84;77.89
42385;BME280;28042;43.986;22.860;2023-02-23T08:28:45;101493.31;;;8.10;76.86
42385;BME280;28042;43.986;22.860;2023-02-23T08:31:14;101493.56;;;8.33;76.20
42385;BME280;28042;43.986;22.860;2023-02-23T08:33:42;101502.72;;;8.32;75.30
42385;BME280;28042;43.986;22.860;2023-02-23T08:36:08;101493.34;;;8.52;75.54
42385;BME280;28042;43.986;22.860;2023-02-23T08:38:33;101493.50;;;8.59;73.93
42385;BME280;28042;43.986;22.860;2023-02-23T08:41:01;101503.56;;;8.66;73.77
42385;BME280;28042;43.986;22.860;2023-02-23T08:43:26;101501.28;;;8.37;74.44
42385;BME280;28042;43.986;22.860;2023-02-23T08:45:52;101502.72;;;8.32;75.27
42385;BME280;28042;43.986;22.860;2023-02-23T08:48:17;101500.47;;;8.53;75.40
42385;BME280;28042;43.986;22.860;2023-02-23T08:50:43;101500.53;;;8.86;73.64
42385;BME280;28042;43.986;22.860;2023-02-23T08:53:08;101498.88;;;8.93;73.34
42385;BME280;28042;43.986;22.860;2023-02-23T08:55:36;101501.75;;;8.91;72.10
42385;BME280;28042;43.986;22.860;2023-02-23T08:58:01;101507.84;;;8.69;73.29
42385;BME280;28042;43.986;22.860;2023-02-23T09:00:27;101508.06;;;9.00;72.61
42385;BME280;28042;43.986;22.860;2023-02-23T09:02:52;101509.13;;;9.23;70.93
42385;BME280;28042;43.986;22.860;2023-02-23T09:05:17;101507.91;;;9.10;70.72
42385;BME280;28042;43.986;22.860;2023-02-23T09:07:43;101507.44;;;9.22;69.96
42385;BME280;28042;43.986;22.860;2023-02-23T09:10:10;101512.53;;;9.25;70.31
42385;BME280;28042;43.986;22.860;2023-02-23T09:12:36;101510.47;;;9.44;69.47
42385;BME280;28042;43.986;22.860;2023-02-23T09:15:01;101511.50;;;9.43;69.93
42385;BME280;28042;43.986;22.860;2023-02-23T09:17:26;101509.13;;;9.56;68.22
42385;BME280;28042;43.986;22.860;2023-02-23T09:19:52;101511.16;;;9.38;68.60
42385;BME280;28042;43.986;22.860;2023-02-23T09:22:17;101511.16;;;9.38;69.40
42385;BME280;28042;43.986;22.860;2023-02-23T09:24:43;101507.75;;;9.52;67.78
42385;BME280;28042;43.986;22.860;2023-02-23T09:27:09;101506.53;;;9.71;68.25
42385;BME280;28042;43.986;22.860;2023-02-23T09:29:37;101518.63;;;9.68;66.70
42385;BME280;28042;43.986;22.860;2023-02-23T09:32:05;101512.53;;;9.42;68.46
42385;BME280;28042;43.986;22.860;2023-02-23T09:34:31;101516.59;;;9.62;68.31
42385;BME280;28042;43.986;22.860;2023-02-23T09:36:56;101512.16;;;9.69;66.76
42385;BME280;28042;43.986;22.860;2023-02-23T09:39:21;101514.53;;;9.80;66.36
42385;BME280;28042;43.986;22.860;2023-02-23T09:49:19;101521.00;;;9.79;66.37
42385;BME280;28042;43.986;22.860;2023-02-23T09:51:48;101516.91;;;10.00;66.64
42385;BME280;28042;43.986;22.860;2023-02-23T09:54:17;101520.28;;;10.02;67.08
42385;BME280;28042;43.986;22.860;2023-02-23T09:56:46;101525.47;;;10.44;65.14
42385;BME280;28042;43.986;22.860;2023-02-23T09:59:12;101515.22;;;10.77;64.13
42385;BME280;28042;43.986;22.860;2023-02-23T10:01:49;101515.63;;;11.20;62.33
42385;BME280;28042;43.986;22.860;2023-02-23T10:09:26;101515.34;;;10.61;62.02
42385;BME280;28042;43.986;22.860;2023-02-23T10:21:44;101507.75;;;11.25;60.41
42385;BME280;28042;43.986;22.860;2023-02-23T10:26:50;101505.03;;;11.63;58.86
42385;BME280;28042;43.986;22.860;2023-02-23T10:29:22;101499.84;;;11.53;58.85
42385;BME280;28042;43.986;22.860;2023-02-23T10:31:48;101507.56;;;11.49;58.68
42385;BME280;28042;43.986;22.860;2023-02-23T10:34:16;101496.56;;;11.12;59.91
42385;BME280;28042;43.986;22.860;2023-02-23T10:36:47;101495.84;;;11.18;60.27
42385;BME280;28042;43.986;22.860;2023-02-23T10:39:15;101501.53;;;10.85;61.39
42385;BME280;28042;43.986;22.860;2023-02-23T10:41:41;101489.59;;;11.09;60.97
42385;BME280;28042;43.986;22.860;2023-02-23T10:44:10;101495.47;;;11.44;59.88
42385;BME280;28042;43.986;22.860;2023-02-23T10:46:39;101493.19;;;11.10;60.94
42385;BME280;28042;43.986;22.860;2023-02-23T10:49:05;101489.31;;;11.04;60.81
42385;BME280;28042;43.986;22.860;2023-02-23T10:51:32;101485.97;;;11.17;61.87
42385;BME280;28042;43.986;22.860;2023-02-23T10:53:58;101480.31;;;11.41;60.99
42385;BME280;28042;43.986;22.860;2023-02-23T10:56:23;101478.38;;;11.27;60.61
42385;BME280;28042;43.986;22.860;2023-02-23T10:58:56;101471.41;;;11.01;61.44
42385;BME280;28042;43.986;22.860;2023-02-23T11:01:32;101472.50;;;11.38;60.74
42385;BME280;28042;43.986;22.860;2023-02-23T11:04:11;101468.41;;;11.34;60.36
42385;BME280;28042;43.986;22.860;2023-02-23T11:06:37;101466.03;;;11.69;60.25
42385;BME280;28042;43.986;22.860;2023-02-23T11:11:40;101464.22;;;12.13;58.36
42385;BME280;28042;43.986;22.860;2023-02-23T11:14:22;101449.03;;;11.96;58.62
42385;BME280;28042;43.986;22.860;2023-02-23T11:16:49;101452.94;;;11.79;59.46
42385;BME280;28042;43.986;22.860;2023-02-23T11:19:23;101450.47;;;11.92;58.44
42385;BME280;28042;43.986;22.860;2023-02-23T11:21:50;101449.31;;;12.01;58.02
42385;BME280;28042;43.986;22.860;2023-02-23T11:26:52;101455.16;;;11.46;60.12
42385;BME280;28042;43.986;22.860;2023-02-23T11:29:31;101451.75;;;11.96;58.95
42385;BME280;28042;43.986;22.860;2023-02-23T11:31:58;101443.84;;;12.01;57.98
42385;BME280;28042;43.986;22.860;2023-02-23T11:34:28;101446.47;;;12.24;58.37
42385;BME280;28042;43.986;22.860;2023-02-23T11:36:58;101443.06;;;12.37;57.85
42385;BME280;28042;43.986;22.860;2023-02-23T11:39:24;101439.69;;;12.35;57.25
42385;BME280;28042;43.986;22.860;2023-02-23T11:44:32;101438.56;;;12.14;58.29
42385;BME280;28042;43.986;22.860;2023-02-23T11:46:58;101439.97;;;11.81;59.12
42385;BME280;28042;43.986;22.860;2023-02-23T11:49:43;101440.72;;;12.34;57.72
42385;BME280;28042;43.986;22.860;2023-02-23T11:52:18;101436.53;;;12.38;57.59
42385;BME280;28042;43.986;22.860;2023-02-23T11:54:53;101435.81;;;12.65;56.64
42385;BME280;28042;43.986;22.860;2023-02-23T11:57:20;101441.09;;;12.67;56.17
42385;BME280;28042;43.986;22.860;2023-02-23T11:59:46;101433.13;;;12.87;55.91
42385;BME280;28042;43.986;22.860;2023-02-23T12:04:39;101431.69;;;13.12;55.00
42385;BME280;28042;43.986;22.860;2023-02-23T12:09:43;101432.03;;;12.66;55.76
42385;BME280;28042;43.986;22.860;2023-02-23T12:12:12;101420.22;;;12.66;56.23
42385;BME280;28042;43.986;22.860;2023-02-23T12:17:17;101434.28;;;12.78;55.29
42385;BME280;28042;43.986;22.860;2023-02-23T12:19:46;101424.63;;;12.82;55.52
42385;BME280;28042;43.986;22.860;2023-02-23T12:22:14;101428.47;;;12.87;55.68
42385;BME280;28042;43.986;22.860;2023-02-23T12:29:55;101418.75;;;12.63;57.23
42385;BME280;28042;43.986;22.860;2023-02-23T12:32:24;101421.56;;;13.13;54.89
42385;BME280;28042;43.986;22.860;2023-02-23T12:34:53;101420.72;;;13.12;55.28
42385;BME280;28042;43.986;22.860;2023-02-23T12:40:14;101425.09;;;13.07;54.91
42385;BME280;28042;43.986;22.860;2023-02-23T12:45:20;101414.28;;;13.48;54.32
42385;BME280;28042;43.986;22.860;2023-02-23T12:47:58;101412.06;;;13.37;54.58
42385;BME280;28042;43.986;22.860;2023-02-23T12:58:56;101412.16;;;13.00;55.49
42385;BME280;28042;43.986;22.860;2023-02-23T13:01:43;101406.25;;;12.97;55.98
42385;BME280;28042;43.986;22.860;2023-02-23T13:12:17;101408.06;;;12.90;57.07
42385;BME280;28042;43.986;22.860;2023-02-23T13:17:25;101403.59;;;12.46;58.43
42385;BME280;28042;43.986;22.860;2023-02-23T13:20:00;101405.06;;;12.63;57.98
42385;BME280;28042;43.986;22.860;2023-02-23T13:22:36;101401.72;;;12.32;58.62
42385;BME280;28042;43.986;22.860;2023-02-23T13:25:11;101401.25;;;12.43;59.03
42385;BME280;28042;43.986;22.860;2023-02-23T13:27:44;101399.50;;;12.21;59.55
42385;BME280;28042;43.986;22.860;2023-02-23T13:30:13;101401.16;;;12.00;60.38
42385;BME280;28042;43.986;22.860;2023-02-23T13:32:40;101397.06;;;11.96;60.96
42385;BME280;28042;43.986;22.860;2023-02-23T13:35:07;101400.34;;;12.06;60.81
42385;BME280;28042;43.986;22.860;2023-02-23T13:42:51;101412.13;;;11.77;62.70
42385;BME280;28042;43.986;22.860;2023-02-23T13:47:54;101412.63;;;11.66;63.61
42385;BME280;28042;43.986;22.860;2023-02-23T13:50:33;101408.84;;;11.67;63.93
42385;BME280;28042;43.986;22.860;2023-02-23T13:53:04;101424.75;;;11.78;64.24
42385;BME280;28042;43.986;22.860;2023-02-23T13:55:34;101422.56;;;11.82;63.88
42385;BME280;28042;43.986;22.860;2023-02-23T13:58:04;101418.28;;;11.65;64.41
42385;BME280;28042;43.986;22.860;2023-02-23T14:00:31;101419.13;;;11.65;65.03
42385;BME280;28042;43.986;22.860;2023-02-23T14:03:00;101416.09;;;11.75;64.82
42385;BME280;28042;43.986;22.860;2023-02-23T14:05:27;101412.63;;;11.81;64.43
42385;BME280;28042;43.986;22.860;2023-02-23T14:07:54;101416.75;;;11.62;64.68
42385;BME280;28042;43.986;22.860;2023-02-23T14:10:21;101419.66;;;11.60;65.25
42385;BME280;28042;43.986;22.860;2023-02-23T14:17:57;101431.91;;;11.12;67.30
42385;BME280;28042;43.986;22.860;2023-02-23T14:20:24;101436.28;;;10.98;68.66
42385;BME280;28042;43.986;22.860;2023-02-23T14:25:50;101440.94;;;10.67;70.33
42385;BME280;28042;43.986;22.860;2023-02-23T14:28:32;101444.50;;;10.44;71.80
42385;BME280;28042;43.986;22.860;2023-02-23T14:41:21;101462.28;;;10.16;75.48
42385;BME280;28042;43.986;22.860;2023-02-23T14:43:49;101460.59;;;10.15;75.62
42385;BME280;28042;43.986;22.860;2023-02-23T14:46:20;101449.38;;;10.10;75.82
42385;BME280;28042;43.986;22.860;2023-02-23T14:49:00;101453.47;;;10.06;76.17
42385;BME280;28042;43.986;22.860;2023-02-23T14:53:51;101456.94;;;9.91;76.54
42385;BME280;28042;43.986;22.860;2023-02-23T14:56:20;101456.25;;;9.89;76.87
42385;BME280;28042;43.986;22.860;2023-02-23T14:58:50;101455.25;;;9.90;77.02
42385;BME280;28042;43.986;22.860;2023-02-23T15:01:32;101452.53;;;9.90;76.78
42385;BME280;28042;43.986;22.860;2023-02-23T15:06:51;101460.72;;;9.82;77.16
42385;BME280;28042;43.986;22.860;2023-02-23T15:09:20;101455.97;;;9.76;77.66
42385;BME280;28042;43.986;22.860;2023-02-23T15:11:47;101462.75;;;9.72;78.35
42385;BME280;28042;43.986;22.860;2023-02-23T15:14:14;101459.56;;;9.69;78.50
42385;BME280;28042;43.986;22.860;2023-02-23T15:16:40;101459.06;;;9.57;79.93